Time;durP1;ratioP1;P1;durP2;ratioP2;P2;SDS_P1;SDS_P2;PMS_P1;PMS_P2;Temp;Humidity;BMP_temperature;BMP_pressure;BME280_temperature;BME280_humidity;BME280_pressure;Samples;Min_cycle;Max_cycle;Signal;HPM_P1;HPM_P2
2021/12/14 00:02:51;;;;;;;103.83;42.62;;;;;;;1.30;85.20;101278.17;2079927;83;21499;-68
2021/12/14 00:05:53;;;;;;;118.37;46.88;;;;;;;1.23;85.27;101273.33;2069903;83;21616;-69
2021/12/14 00:08:58;;;;;;;129.32;46.90;;;;;;;1.27;85.48;101272.27;2079231;83;21172;-68
2021/12/14 00:15:15;;;;;;;99.85;41.30;;;;;;;1.19;85.41;101268.73;2083989;83;21075;-70
2021/12/14 00:18:17;;;;;;;101.02;44.63;;;;;;;1.20;85.53;101270.87;2066213;83;21099;-69
2021/12/14 00:21:29;;;;;;;99.58;43.48;;;;;;;1.16;85.50;101270.19;2079474;83;20986;-68
2021/12/14 00:24:29;;;;;;;111.10;45.05;;;;;;;1.14;85.48;101273.80;2085876;83;21013;-68
2021/12/14 00:27:31;;;;;;;100.72;46.08;;;;;;;1.11;85.51;101270.88;2068991;83;21136;-68
2021/12/14 00:30:35;;;;;;;110.30;49.13;;;;;;;1.09;85.57;101270.11;2090144;83;21123;-68
2021/12/14 00:33:39;;;;;;;127.38;49.58;;;;;;;1.07;85.62;101271.95;2089222;82;21057;-72
2021/12/14 00:36:41;;;;;;;146.68;52.30;;;;;;;1.01;85.60;101273.09;2081669;83;21110;-72
2021/12/14 00:39:45;;;;;;;143.05;53.58;;;;;;;1.00;85.73;101283.18;2081886;82;20974;-68
2021/12/14 00:42:47;;;;;;;120.50;48.42;;;;;;;0.98;85.84;101282.87;2080532;83;21103;-68
2021/12/14 00:45:49;;;;;;;138.22;49.93;;;;;;;0.95;85.86;101285.17;2073289;83;21070;-69
2021/12/14 00:48:51;;;;;;;121.20;46.55;;;;;;;0.93;85.86;101277.02;2076852;82;21662;-68
2021/12/14 00:51:54;;;;;;;120.87;46.13;;;;;;;0.89;85.81;101283.70;2079573;83;21050;-68
2021/12/14 00:54:59;;;;;;;123.45;43.75;;;;;;;0.82;85.73;101274.97;2087933;83;21084;-69
2021/12/14 00:58:01;;;;;;;121.95;47.58;;;;;;;0.80;85.90;101281.56;2066405;83;21105;-68
2021/12/14 01:01:17;;;;;;;134.63;49.75;;;;;;;0.79;86.01;101281.63;2078035;83;21088;-69
2021/12/14 01:04:24;;;;;;;164.07;54.13;;;;;;;0.78;86.13;101284.70;2085522;83;21049;-68
2021/12/14 01:07:29;;;;;;;174.60;56.53;;;;;;;0.79;86.25;101281.19;2081392;83;21120;-69
2021/12/14 01:10:36;;;;;;;160.22;55.67;;;;;;;0.77;86.22;101284.80;2071977;83;21116;-68
2021/12/14 01:13:45;;;;;;;124.72;52.88;;;;;;;0.77;86.38;101292.16;2085677;83;21136;-68
2021/12/14 01:17:05;;;;;;;122.82;49.88;;;;;;;0.85;86.58;101290.49;2077480;82;21061;-70
2021/12/14 01:19:58;;;;;;;126.38;49.33;;;;;;;0.93;86.56;101294.01;2079063;83;21084;-68
2021/12/14 01:23:02;;;;;;;126.58;48.73;;;;;;;1.01;86.60;101286.17;2088360;82;21405;-68
2021/12/14 01:26:11;;;;;;;118.75;49.27;;;;;;;1.08;86.58;101294.10;2074830;83;21046;-67
2021/12/14 01:29:15;;;;;;;113.62;48.65;;;;;;;1.17;86.63;101290.64;2080060;83;21100;-68
2021/12/14 01:32:17;;;;;;;126.65;51.63;;;;;;;1.28;86.65;101285.24;2082233;82;21021;-68
2021/12/14 01:35:25;;;;;;;145.30;51.77;;;;;;;1.33;86.46;101282.41;2083269;83;20993;-68
2021/12/14 01:41:29;;;;;;;237.80;53.45;;;;;;;1.22;86.09;101288.17;2084514;83;21119;-68
2021/12/14 01:44:58;;;;;;;112.60;47.75;;;;;;;1.21;86.23;101292.16;2087673;83;21083;-68
2021/12/14 01:48:02;;;;;;;126.07;47.73;;;;;;;1.22;86.27;101290.79;2083263;83;21050;-69
2021/12/14 01:51:13;;;;;;;119.42;47.33;;;;;;;1.31;86.43;101294.23;2089350;83;21066;-72
2021/12/14 01:54:21;;;;;;;116.12;47.23;;;;;;;1.31;86.11;101290.31;2079295;82;23029;-68
2021/12/14 01:57:27;;;;;;;135.40;50.05;;;;;;;1.14;85.76;101287.72;2081414;83;21508;-72
2021/12/14 02:00:40;;;;;;;125.80;50.33;;;;;;;1.12;86.02;101279.94;2079796;82;21092;-68
2021/12/14 02:03:56;;;;;;;138.72;51.95;;;;;;;1.13;86.13;101279.50;2076453;83;21114;-68
2021/12/14 02:07:02;;;;;;;124.10;49.27;;;;;;;1.04;85.89;101282.55;2070798;83;21504;-69
2021/12/14 02:10:09;;;;;;;108.85;45.60;;;;;;;1.04;86.24;101281.25;2070771;83;21080;-69
2021/12/14 02:13:11;;;;;;;104.70;42.38;;;;;;;1.07;86.41;101281.09;2092012;82;21560;-73
2021/12/14 02:16:18;;;;;;;102.55;40.55;;;;;;;1.09;86.39;101280.09;2077754;83;21088;-69
2021/12/14 02:19:21;;;;;;;90.75;39.38;;;;;;;1.08;86.37;101269.27;2087187;83;21029;-69
2021/12/14 02:22:23;;;;;;;90.72;40.92;;;;;;;1.06;86.35;101279.41;2065218;83;21052;-70
2021/12/14 02:25:25;;;;;;;86.22;39.92;;;;;;;1.16;86.62;101288.49;2079822;83;21115;-70
2021/12/14 02:28:27;;;;;;;103.60;41.02;;;;;;;1.27;86.64;101281.41;2066200;82;21075;-72
2021/12/14 02:31:30;;;;;;;97.85;40.78;;;;;;;1.36;86.65;101277.48;2087018;83;21099;-69
2021/12/14 02:34:46;;;;;;;116.97;43.55;;;;;;;1.32;86.27;101275.02;2066789;83;21001;-71
2021/12/14 02:37:56;;;;;;;105.37;39.70;;;;;;;1.30;86.25;101272.95;2074614;83;21032;-69
2021/12/14 02:41:05;;;;;;;90.28;37.63;;;;;;;1.20;86.12;101266.95;2081003;83;21504;-69
2021/12/14 02:44:18;;;;;;;86.47;39.25;;;;;;;1.17;86.30;101260.11;2082877;82;21063;-69
2021/12/14 02:47:21;;;;;;;87.22;37.70;;;;;;;1.16;86.28;101265.44;2070113;83;21048;-69
2021/12/14 02:50:26;;;;;;;78.45;35.58;;;;;;;1.16;86.33;101253.66;2076917;83;21016;-70
2021/12/14 02:53:27;;;;;;;94.15;36.23;;;;;;;1.08;86.33;101250.13;2087650;83;21084;-70
2021/12/14 02:56:35;;;;;;;90.45;39.00;;;;;;;1.06;86.44;101258.50;2080720;83;21014;-69
2021/12/14 02:59:40;;;;;;;84.03;36.28;;;;;;;1.03;86.54;101254.27;2058362;82;21069;-69
2021/12/14 03:02:43;;;;;;;89.10;37.83;;;;;;;1.07;86.70;101258.88;2085429;83;21083;-69
2021/12/14 03:05:49;;;;;;;80.70;34.18;;;;;;;1.09;86.75;101259.65;2075893;83;21061;-69
2021/12/14 03:09:16;;;;;;;73.72;32.38;;;;;;;1.08;86.74;101256.66;2079838;82;21101;-72
2021/12/14 03:12:05;;;;;;;72.03;33.37;;;;;;;1.02;86.62;101254.37;2085209;82;21591;-69
2021/12/14 03:15:24;;;;;;;73.67;32.78;;;;;;;1.05;86.74;101254.21;2080773;83;21029;-70
2021/12/14 03:18:33;;;;;;;68.10;32.15;;;;;;;1.09;86.88;101253.95;2088562;83;21067;-70
2021/12/14 03:21:40;;;;;;;61.33;32.42;;;;;;;1.21;87.16;101255.55;2079267;83;21562;-69
2021/12/14 03:24:42;;;;;;;70.62;34.67;;;;;;;1.36;87.31;101256.56;2086954;83;20997;-69
2021/12/14 03:27:45;;;;;;;70.12;33.40;;;;;;;1.45;87.16;101262.14;2080375;83;21138;-69
2021/12/14 03:30:52;;;;;;;67.80;31.15;;;;;;;1.51;87.08;101251.81;2087447;82;21089;-70
2021/12/14 03:34:02;;;;;;;62.83;29.85;;;;;;;1.50;86.88;101244.44;2087001;83;21112;-70
2021/12/14 03:37:16;;;;;;;164.28;67.55;;;;;;;1.47;86.81;101248.53;2088243;83;21389;-70
2021/12/14 03:40:20;;;;;;;75.72;34.75;;;;;;;1.50;86.97;101244.91;2093009;83;21104;-69
2021/12/14 03:43:22;;;;;;;63.83;30.27;;;;;;;1.59;87.04;101234.41;2076709;83;21081;-72
2021/12/14 03:46:32;;;;;;;66.17;31.55;;;;;;;1.63;86.95;101235.45;2087011;83;20998;-69
2021/12/14 03:49:39;;;;;;;68.65;33.98;;;;;;;1.71;86.96;101235.89;2074348;83;21083;-72
2021/12/14 03:52:43;;;;;;;81.12;35.92;;;;;;;1.67;86.60;101237.00;2076623;83;21026;-70
2021/12/14 03:55:52;;;;;;;87.55;38.15;;;;;;;1.63;86.45;101240.69;2081227;82;21065;-69
2021/12/14 03:58:54;;;;;;;88.05;39.35;;;;;;;1.54;86.32;101241.19;2086921;82;21577;-69
2021/12/14 04:02:01;;;;;;;74.05;36.05;;;;;;;1.48;86.34;101244.97;2091930;82;21013;-70
2021/12/14 04:05:11;;;;;;;70.10;33.95;;;;;;;1.47;86.45;101234.61;2085506;83;21068;-69
2021/12/14 04:08:14;;;;;;;70.57;33.38;;;;;;;1.48;86.54;101233.67;2080926;82;21000;-69
2021/12/14 04:11:17;;;;;;;67.60;32.88;;;;;;;1.51;86.59;101229.11;2082635;83;21083;-69
2021/12/14 04:14:20;;;;;;;69.58;33.90;;;;;;;1.57;86.58;101233.17;2089157;83;21050;-69
2021/12/14 04:17:26;;;;;;;70.85;32.73;;;;;;;1.50;86.25;101233.14;2080295;82;21107;-68
2021/12/14 04:20:35;;;;;;;80.67;37.48;;;;;;;1.34;86.06;101240.46;2082139;83;21563;-69
2021/12/14 04:23:44;;;;;;;69.05;32.93;;;;;;;1.30;86.42;101233.72;2083447;83;21067;-69
2021/12/14 04:26:48;;;;;;;63.35;30.17;;;;;;;1.38;86.72;101236.38;2073941;83;21118;-69
2021/12/14 04:29:52;;;;;;;58.68;28.17;;;;;;;1.40;86.72;101233.23;2088392;83;21083;-69
2021/12/14 04:33:00;;;;;;;60.00;28.98;;;;;;;1.40;86.60;101239.77;2081242;83;21013;-68
2021/12/14 04:36:07;;;;;;;55.98;27.98;;;;;;;1.36;86.62;101229.09;2089314;83;21088;-69
2021/12/14 04:52:53;;;;;;;75.05;33.13;;;;;;;1.39;86.65;101244.63;2078538;82;21102;-69
2021/12/14 04:55:57;;;;;;;56.90;29.65;;;;;;;1.41;86.77;101247.98;2086380;83;21563;-69
2021/12/14 04:59:22;;;;;;;59.83;30.02;;;;;;;1.39;86.79;101239.39;2074893;82;21532;-70
2021/12/14 05:02:29;;;;;;;70.85;33.33;;;;;;;1.34;86.71;101232.62;2081881;83;21022;-70
2021/12/14 05:05:46;;;;;;;59.55;29.30;;;;;;;1.28;86.61;101219.87;2083010;82;21365;-71
2021/12/14 05:12:28;;;;;;;63.00;29.65;;;;;;;1.23;86.65;101219.26;2076180;83;21410;-71
2021/12/14 05:15:37;;;;;;;60.00;29.72;;;;;;;1.14;86.54;101211.91;2086068;83;21483;-71
2021/12/14 05:18:44;;;;;;;66.85;29.18;;;;;;;1.14;86.69;101217.59;2088470;83;21092;-72
2021/12/14 05:21:50;;;;;;;65.10;30.05;;;;;;;1.08;86.67;101211.76;2087436;82;21476;-73
2021/12/14 05:25:00;;;;;;;55.70;28.80;;;;;;;1.04;86.67;101208.06;2093447;82;21041;-74
2021/12/14 05:28:04;;;;;;;59.03;28.65;;;;;;;0.97;86.64;101204.93;2061667;83;21021;-73
2021/12/14 05:31:08;;;;;;;52.60;26.27;;;;;;;0.92;86.79;101206.92;2091073;83;22386;-74
2021/12/14 05:34:12;;;;;;;47.85;26.00;;;;;;;0.93;87.02;101199.48;2078613;83;21068;-75
2021/12/14 05:37:24;;;;;;;51.63;26.45;;;;;;;0.92;87.10;101202.17;2079128;82;21143;-75
2021/12/14 05:43:35;;;;;;;52.60;27.02;;;;;;;1.01;87.39;101201.69;2089266;83;21573;-72
2021/12/14 05:46:49;;;;;;;58.68;28.60;;;;;;;1.07;87.44;101202.23;2091520;82;21132;-72
2021/12/14 05:49:48;;;;;;;88.45;37.00;;;;;;;1.14;87.41;101207.98;2091446;82;21064;-74
2021/12/14 05:52:50;;;;;;;107.27;40.73;;;;;;;1.23;87.50;101207.96;2082908;83;21499;-72
2021/12/14 05:55:52;;;;;;;91.82;38.90;;;;;;;1.32;87.47;101214.88;2082563;83;21123;-73
2021/12/14 05:58:57;;;;;;;291.73;49.30;;;;;;;1.27;87.14;101216.89;2088152;83;21045;-72
2021/12/14 06:02:02;;;;;;;104.12;42.35;;;;;;;1.28;87.26;101209.41;2070791;82;21422;-73
2021/12/14 06:05:05;;;;;;;90.67;40.08;;;;;;;1.36;87.41;101206.87;2077210;82;21017;-77
2021/12/14 06:08:07;;;;;;;75.52;33.70;;;;;;;1.42;87.34;101198.22;2097204;83;21532;-73
2021/12/14 06:11:22;;;;;;;78.70;35.28;;;;;;;1.47;87.24;101206.67;2084640;82;21868;-72
2021/12/14 06:14:28;;;;;;;52.48;27.07;;;;;;;1.51;87.18;101191.66;2076601;83;21084;-72
2021/12/14 06:17:35;;;;;;;55.08;29.67;;;;;;;1.51;87.19;101201.64;2093208;83;21010;-72
2021/12/14 06:20:42;;;;;;;58.68;29.42;;;;;;;1.56;87.24;101200.11;2086903;82;21013;-72
2021/12/14 06:23:44;;;;;;;55.28;27.02;;;;;;;1.56;87.21;101198.33;2087282;83;21595;-72
2021/12/14 06:26:52;;;;;;;57.88;28.62;;;;;;;1.55;87.08;101198.42;2085358;82;21132;-72
2021/12/14 06:30:01;;;;;;;54.25;25.15;;;;;;;1.52;87.00;101198.56;2094225;83;21079;-72
2021/12/14 06:33:07;;;;;;;;;;;;;;;1.44;86.94;101204.23;2063674;82;21077;-72
2021/12/14 06:36:14;;;;;;;46.35;23.85;;;;;;;1.45;87.08;101203.76;2090713;82;20209;-72
2021/12/14 06:39:17;;;;;;;40.23;23.47;;;;;;;1.50;87.23;101209.13;2088831;82;20992;-72
2021/12/14 06:42:20;;;;;;;47.58;25.80;;;;;;;1.49;87.24;101203.96;2081189;82;21042;-72
2021/12/14 06:45:27;;;;;;;45.25;23.98;;;;;;;1.49;87.14;101203.52;2088864;82;21045;-72
2021/12/14 06:48:45;;;;;;;47.38;24.32;;;;;;;1.46;87.19;101200.20;2074625;82;21002;-72
2021/12/14 06:51:53;;;;;;;42.70;22.13;;;;;;;1.42;87.23;101202.61;2090227;83;21052;-72
2021/12/14 06:55:24;;;;;;;49.08;25.97;;;;;;;1.38;87.24;101201.07;2080769;83;21124;-72
2021/12/14 06:58:59;;;;;;;41.63;22.70;;;;;;;1.34;87.35;101201.70;2079980;83;21136;-71
2021/12/14 07:02:08;;;;;;;44.03;23.35;;;;;;;1.31;87.47;101202.70;2085521;83;21063;-71
2021/12/14 07:05:24;;;;;;;45.40;23.73;;;;;;;1.36;87.66;101207.70;2081816;83;21544;-71
2021/12/14 07:08:27;;;;;;;43.50;23.40;;;;;;;1.38;87.68;101214.15;2085317;83;21561;-71
2021/12/14 07:11:29;;;;;;;41.73;23.47;;;;;;;1.40;87.74;101211.00;2078213;82;21000;-71
2021/12/14 07:14:39;;;;;;;44.00;24.52;;;;;;;1.40;87.78;101201.84;2086243;82;21061;-72
2021/12/14 07:17:53;;;;;;;42.90;21.50;;;;;;;1.40;87.83;101202.69;2082493;83;21020;-71
2021/12/14 07:20:53;;;;;;;44.83;23.47;;;;;;;1.39;87.86;101201.00;2082788;83;21099;-72
2021/12/14 07:23:55;;;;;;;43.05;22.10;;;;;;;1.40;87.96;101201.38;2081776;83;21037;-71
2021/12/14 07:27:17;;;;;;;44.85;22.55;;;;;;;1.39;88.01;101196.24;2091961;83;21128;-71
2021/12/14 07:30:30;;;;;;;43.40;22.73;;;;;;;1.39;88.18;101194.47;2080787;83;21547;-72
2021/12/14 07:33:34;;;;;;;43.23;23.00;;;;;;;1.38;88.22;101194.53;2081206;83;21650;-72
2021/12/14 07:36:39;;;;;;;52.98;24.05;;;;;;;1.41;88.28;101189.14;2094726;83;21054;-71
2021/12/14 07:39:41;;;;;;;56.42;25.15;;;;;;;1.43;88.35;101182.06;2068171;83;21002;-72
2021/12/14 07:42:44;;;;;;;73.67;25.97;;;;;;;1.46;88.39;101188.44;2077004;83;21662;-71
2021/12/14 07:45:50;;;;;;;59.93;26.15;;;;;;;1.45;88.40;101190.20;2095558;83;21085;-71
2021/12/14 07:49:06;;;;;;;57.03;24.90;;;;;;;1.47;88.45;101195.38;2083170;82;21135;-71
2021/12/14 07:52:14;;;;;;;61.28;27.90;;;;;;;1.47;88.58;101189.67;2069127;83;21052;-71
2021/12/14 07:55:20;;;;;;;47.33;23.95;;;;;;;1.47;88.59;101200.14;2086323;82;21083;-71
2021/12/14 07:58:35;;;;;;;53.38;23.98;;;;;;;1.50;88.63;101204.36;2088449;83;21041;-71
2021/12/14 08:01:36;;;;;;;47.13;24.25;;;;;;;1.54;88.65;101198.03;2075678;83;21457;-71
2021/12/14 08:04:41;;;;;;;47.13;22.67;;;;;;;1.58;88.67;101195.64;2081176;83;21076;-71
2021/12/14 08:07:47;;;;;;;53.33;24.75;;;;;;;1.64;88.72;101200.54;2081382;83;21029;-71
2021/12/14 08:11:26;;;;;;;52.08;25.65;;;;;;;1.73;88.72;101200.50;2088407;83;21060;-71
2021/12/14 08:14:23;;;;;;;59.33;26.30;;;;;;;1.73;88.67;101199.19;2051232;83;22593;-71
2021/12/14 08:17:24;;;;;;;53.78;27.62;;;;;;;1.77;88.70;101188.92;2081270;82;21092;-71
2021/12/14 08:20:27;;;;;;;67.95;25.40;;;;;;;1.76;88.65;101195.94;2081071;83;20997;-72
2021/12/14 08:23:40;;;;;;;57.17;26.57;;;;;;;1.75;88.62;101203.42;2083151;83;21048;-71
2021/12/14 08:26:47;;;;;;;66.22;29.67;;;;;;;1.74;88.65;101205.63;2071171;83;21065;-72
2021/12/14 08:29:55;;;;;;;48.50;25.72;;;;;;;1.76;88.67;101210.33;2076749;82;21041;-72
2021/12/14 08:32:57;;;;;;;55.33;28.70;;;;;;;1.82;88.71;101211.77;2080227;83;21016;-71
2021/12/14 08:36:05;;;;;;;51.63;26.60;;;;;;;1.90;88.88;101214.81;2074757;83;21085;-71
2021/12/14 08:39:20;;;;;;;65.72;27.00;;;;;;;2.02;88.99;101208.89;2075978;82;21124;-71
2021/12/14 08:42:34;;;;;;;57.35;26.82;;;;;;;2.09;88.78;101204.64;2086129;82;21350;-71
2021/12/14 08:45:39;;;;;;;57.88;26.00;;;;;;;2.07;88.62;101201.26;2062954;83;21050;-71
2021/12/14 08:48:45;;;;;;;53.05;26.15;;;;;;;2.11;88.64;101206.25;2064435;83;21474;-72
2021/12/14 08:51:48;;;;;;;51.50;25.52;;;;;;;2.12;88.57;101207.09;2078981;83;21634;-71
2021/12/14 08:54:52;;;;;;;51.73;24.57;;;;;;;2.13;88.52;101205.67;2094890;83;21061;-71
2021/12/14 08:57:53;;;;;;;61.45;23.55;;;;;;;2.20;88.60;101199.66;2059710;83;21049;-71
2021/12/14 09:01:00;;;;;;;51.15;25.27;;;;;;;2.28;88.54;101206.61;2086991;82;21156;-71
2021/12/14 09:04:07;;;;;;;62.03;24.77;;;;;;;2.28;88.48;101208.36;2081921;83;21098;-72
2021/12/14 09:07:16;;;;;;;67.08;25.27;;;;;;;2.28;88.39;101207.05;2085680;82;21092;-71
2021/12/14 09:10:22;;;;;;;52.62;25.02;;;;;;;2.29;88.40;101196.97;2088824;83;21054;-71
2021/12/14 09:13:27;;;;;;;52.58;25.52;;;;;;;2.26;88.33;101200.61;2082775;83;21031;-71
2021/12/14 09:16:31;;;;;;;45.55;22.27;;;;;;;2.21;88.28;101197.40;2090501;83;21179;-71
2021/12/14 09:19:48;;;;;;;51.08;23.27;;;;;;;2.18;88.26;101194.48;2067319;83;21080;-72
2021/12/14 09:22:54;;;;;;;48.87;22.07;;;;;;;2.28;88.43;101191.34;2091233;82;21045;-71
2021/12/14 09:25:57;;;;;;;54.98;27.10;;;;;;;2.35;88.46;101188.77;2093000;83;21614;-71
2021/12/14 09:28:58;;;;;;;56.10;26.68;;;;;;;2.38;88.42;101185.96;2094811;83;21127;-72
2021/12/14 09:32:05;;;;;;;62.35;26.00;;;;;;;2.37;88.29;101184.28;2070180;83;21110;-71
2021/12/14 09:35:14;;;;;;;58.00;25.72;;;;;;;2.37;88.33;101183.81;2084116;83;21048;-71
2021/12/14 09:38:19;;;;;;;50.25;24.15;;;;;;;2.33;88.23;101179.67;2085555;83;21101;-71
2021/12/14 09:41:26;;;;;;;49.13;23.95;;;;;;;2.28;88.16;101180.86;2080582;82;21096;-71
2021/12/14 09:44:32;;;;;;;54.90;25.32;;;;;;;2.29;88.29;101173.41;2090220;83;21068;-71
2021/12/14 09:47:34;;;;;;;50.63;23.65;;;;;;;2.37;88.53;101168.56;2074294;83;21049;-71
2021/12/14 09:50:38;;;;;;;51.55;26.25;;;;;;;2.42;88.49;101166.50;2089380;83;21582;-71
2021/12/14 09:53:44;;;;;;;62.48;24.67;;;;;;;2.47;88.51;101171.85;2077232;83;21008;-71
2021/12/14 09:56:51;;;;;;;62.13;26.57;;;;;;;2.47;88.33;101172.33;2078220;83;20999;-71
2021/12/14 09:59:55;;;;;;;57.38;26.50;;;;;;;2.53;88.42;101166.72;2081974;83;21044;-72
2021/12/14 10:03:00;;;;;;;51.53;23.87;;;;;;;2.54;88.36;101168.43;2085711;83;21114;-71
2021/12/14 10:06:07;;;;;;;53.65;25.37;;;;;;;2.55;88.26;101162.25;2089429;83;21049;-71
2021/12/14 10:09:16;;;;;;;46.02;23.42;;;;;;;2.46;88.12;101166.25;2079256;83;21476;-71
2021/12/14 10:15:42;;;;;;;55.80;24.98;;;;;;;2.61;88.49;101166.28;2080536;83;21022;-71
2021/12/14 10:18:52;;;;;;;61.42;26.55;;;;;;;2.65;88.36;101169.95;2069617;83;21087;-71
2021/12/14 10:21:59;;;;;;;54.23;26.45;;;;;;;2.59;88.09;101169.45;2069497;83;21068;-71
2021/12/14 10:25:06;;;;;;;62.35;24.70;;;;;;;2.60;88.21;101161.52;2085048;83;21579;-71
2021/12/14 10:28:08;;;;;;;49.53;23.52;;;;;;;2.60;88.23;101164.61;2089758;83;21094;-73
2021/12/14 10:31:25;;;;;;;51.33;23.27;;;;;;;2.59;88.21;101165.08;2072415;83;21025;-73
2021/12/14 10:34:27;;;;;;;60.92;23.70;;;;;;;2.63;88.31;101166.57;2088224;82;21076;-72
2021/12/14 10:37:53;;;;;;;64.82;24.30;;;;;;;2.68;88.35;101170.25;2078871;83;21156;-72
2021/12/14 10:44:08;;;;;;;62.62;26.40;;;;;;;2.74;88.32;101179.05;2076221;83;21096;-72
2021/12/14 10:47:14;;;;;;;64.50;27.95;;;;;;;2.79;88.31;101174.83;2083363;83;21040;-71
2021/12/14 10:50:20;;;;;;;60.15;26.20;;;;;;;2.85;88.34;101183.66;2083486;83;21036;-71
2021/12/14 10:53:24;;;;;;;56.40;25.55;;;;;;;2.87;88.29;101176.09;2076824;83;21536;-71
2021/12/14 10:56:31;;;;;;;54.20;25.65;;;;;;;2.89;88.18;101170.73;2089970;82;21649;-71
2021/12/14 10:59:38;;;;;;;63.83;26.52;;;;;;;2.92;88.24;101170.55;2071474;83;21021;-72
2021/12/14 11:02:42;;;;;;;108.37;44.60;;;;;;;2.91;87.99;101168.87;2082247;83;21001;-73
2021/12/14 11:05:47;;;;;;;79.40;37.48;;;;;;;2.86;87.87;101156.50;2079271;83;21125;-73
2021/12/14 11:12:32;;;;;;;87.78;36.45;;;;;;;2.98;88.14;101153.14;2086094;83;21072;-73
2021/12/14 11:15:44;;;;;;;86.32;37.40;;;;;;;2.98;87.95;101157.06;2086865;83;21601;-73
2021/12/14 11:18:51;;;;;;;96.35;46.18;;;;;;;3.00;88.08;101150.44;2081685;83;20999;-73
2021/12/14 11:21:52;;;;;;;85.38;43.17;;;;;;;3.03;88.12;101147.15;2087292;83;21039;-72
2021/12/14 11:25:02;;;;;;;78.67;38.55;;;;;;;3.04;88.03;101153.23;2094122;82;21072;-72
2021/12/14 11:28:11;;;;;;;67.10;35.65;;;;;;;3.05;88.07;101154.94;2085529;83;21076;-73
2021/12/14 11:31:28;;;;;;;66.05;35.10;;;;;;;3.07;88.10;101155.22;2083059;83;21632;-72
2021/12/14 11:34:35;;;;;;;68.72;29.65;;;;;;;3.19;88.31;101149.69;2078204;82;21045;-72
2021/12/14 11:37:38;;;;;;;72.65;31.02;;;;;;;3.19;87.97;101144.92;2074701;83;21050;-73
2021/12/14 11:40:40;;;;;;;72.05;30.80;;;;;;;3.09;87.76;101138.91;2086869;82;21083;-73
2021/12/14 11:43:52;;;;;;;75.03;30.50;;;;;;;3.06;87.77;101144.34;2075890;83;21012;-73
2021/12/14 11:47:05;;;;;;;58.80;29.32;;;;;;;3.00;87.72;101141.26;2075413;83;21096;-72
2021/12/14 11:50:38;;;;;;;77.00;32.80;;;;;;;3.03;87.95;101144.53;2061784;82;21079;-71
2021/12/14 11:53:50;;;;;;;72.87;32.48;;;;;;;3.02;87.80;101140.70;2083645;83;21072;-71
2021/12/14 11:56:52;;;;;;;73.37;32.78;;;;;;;2.97;87.79;101140.97;2077979;83;21548;-72
2021/12/14 12:00:07;;;;;;;84.52;35.85;;;;;;;3.05;87.95;101132.65;2077791;83;21044;-72
2021/12/14 12:03:40;;;;;;;65.17;30.05;;;;;;;3.11;87.97;101125.71;2086272;82;21057;-71
2021/12/14 12:10:03;;;;;;;53.13;26.85;;;;;;;3.21;87.96;101129.91;2082448;83;21001;-72
2021/12/14 12:13:04;;;;;;;59.85;25.60;;;;;;;3.24;87.78;101125.78;2084928;83;21076;-71
2021/12/14 12:16:17;;;;;;;50.23;24.70;;;;;;;3.13;87.37;101127.30;2082090;83;21076;-72
2021/12/14 12:19:25;;;;;;;56.13;25.30;;;;;;;3.06;87.47;101122.05;2055329;83;22049;-71
2021/12/14 12:22:44;;;;;;;55.80;27.10;;;;;;;3.11;87.67;101119.99;2088330;83;21627;-71
2021/12/14 12:26:02;;;;;;;58.55;27.65;;;;;;;3.13;87.78;101122.06;2086716;82;21081;-71
2021/12/14 12:29:06;;;;;;;65.10;28.50;;;;;;;3.11;87.70;101112.13;2092646;83;21105;-71
2021/12/14 12:32:18;;;;;;;56.45;27.65;;;;;;;3.04;87.62;101116.08;2076712;83;21116;-72
2021/12/14 12:35:33;;;;;;;59.10;27.07;;;;;;;3.00;87.67;101107.17;2094180;82;21152;-72
2021/12/14 12:38:57;;;;;;;48.55;23.95;;;;;;;3.00;87.69;101107.17;2088677;82;21551;-72
2021/12/14 12:42:03;;;;;;;48.05;24.77;;;;;;;3.04;87.82;101098.16;2075529;82;21048;-72
2021/12/14 12:45:25;;;;;;;54.50;27.75;;;;;;;3.05;87.83;101102.49;2077491;82;21037;-72
2021/12/14 12:48:55;;;;;;;56.68;27.13;;;;;;;3.04;87.75;101106.91;2075041;83;21139;-72
2021/12/14 12:52:12;;;;;;;62.13;27.90;;;;;;;3.10;87.93;101108.30;2078964;82;21042;-70
2021/12/14 12:55:28;;;;;;;60.30;27.80;;;;;;;3.12;87.85;101107.24;2092519;83;21619;-72
2021/12/14 12:58:25;;;;;;;58.73;26.68;;;;;;;3.12;87.82;101115.11;2084446;83;21083;-73
2021/12/14 13:01:28;;;;;;;58.45;29.20;;;;;;;3.15;87.84;101108.84;2089572;83;21069;-73
2021/12/14 13:04:42;;;;;;;57.98;25.77;;;;;;;3.19;87.84;101106.41;2086497;83;21642;-72
2021/12/14 13:07:58;;;;;;;56.60;29.55;;;;;;;3.24;87.77;101102.17;2093315;83;21563;-73
2021/12/14 13:11:32;;;;;;;88.75;42.73;;;;;;;3.26;87.70;101113.42;2089997;83;21084;-72
2021/12/14 13:14:37;;;;;;;106.10;38.10;;;;;;;3.29;87.74;101105.36;2080996;82;21013;-72
2021/12/14 13:17:38;;;;;;;71.60;32.70;;;;;;;3.30;87.48;101107.91;2081913;83;21095;-72
2021/12/14 13:20:41;;;;;;;68.90;32.75;;;;;;;3.14;87.28;101111.94;2085034;83;21898;-72
2021/12/14 13:24:05;;;;;;;71.50;30.68;;;;;;;3.14;87.48;101112.41;2083294;83;21076;-72
2021/12/14 13:27:24;;;;;;;119.70;31.10;;;;;;;3.13;87.47;101112.05;2098332;83;21060;-72
2021/12/14 13:30:29;;;;;;;81.10;36.98;;;;;;;2.98;87.15;101111.19;2082366;83;21523;-72
2021/12/14 13:33:33;;;;;;;105.50;44.45;;;;;;;3.01;87.59;101109.68;2085408;82;21067;-72
2021/12/14 13:36:37;;;;;;;92.25;42.73;;;;;;;3.06;87.69;101122.05;2078064;83;21128;-72
2021/12/14 13:39:40;;;;;;;93.12;41.85;;;;;;;3.10;87.65;101134.05;2065287;83;21116;-72
2021/12/14 13:43:04;;;;;;;100.02;42.20;;;;;;;3.09;87.52;101129.72;2072316;83;21121;-72
2021/12/14 13:46:08;;;;;;;132.70;56.73;;;;;;;3.07;87.51;101124.20;2083931;83;20998;-72
2021/12/14 13:49:10;;;;;;;119.55;49.05;;;;;;;3.11;87.61;101133.58;2073619;83;21095;-71
2021/12/14 13:52:16;;;;;;;108.50;40.55;;;;;;;3.05;87.39;101138.73;2088025;82;20985;-72
2021/12/14 13:55:26;;;;;;;106.58;42.23;;;;;;;3.00;87.30;101145.19;2094401;83;21476;-72
2021/12/14 13:58:32;;;;;;;133.20;49.60;;;;;;;2.97;87.32;101144.06;2071893;83;21603;-72
2021/12/14 14:01:41;;;;;;;139.35;54.88;;;;;;;2.96;87.37;101161.58;2088936;83;21039;-72
2021/12/14 14:04:42;;;;;;;145.25;54.95;;;;;;;2.90;87.29;101146.20;2079027;83;21077;-72
2021/12/14 14:07:44;;;;;;;175.38;61.40;;;;;;;2.88;87.38;101150.23;2095846;82;21095;-72
2021/12/14 14:10:49;;;;;;;207.77;71.22;;;;;;;2.84;87.39;101155.27;2090258;83;21553;-72
2021/12/14 14:13:59;;;;;;;197.75;84.45;;;;;;;2.84;87.58;101153.96;2087303;83;21032;-72
2021/12/14 14:17:09;;;;;;;211.87;91.97;;;;;;;2.86;87.57;101150.79;2082801;83;21068;-72
2021/12/14 14:20:16;;;;;;;85.65;40.40;;;;;;;2.92;87.62;101152.20;2047450;83;22794;-72
2021/12/14 14:23:26;;;;;;;68.72;34.50;;;;;;;2.98;87.66;101148.36;2089649;82;21104;-72
2021/12/14 14:26:41;;;;;;;97.63;44.27;;;;;;;3.00;87.60;101142.09;2084397;83;21009;-72
2021/12/14 14:29:48;;;;;;;82.42;37.38;;;;;;;3.04;87.58;101138.37;2085067;83;21314;-73
2021/12/14 14:33:21;;;;;;;76.57;37.00;;;;;;;3.10;87.49;101139.30;2081441;83;21473;-73
2021/12/14 14:36:27;;;;;;;74.45;37.15;;;;;;;3.13;87.51;101143.04;2080755;83;21116;-73
2021/12/14 14:39:34;;;;;;;71.30;34.38;;;;;;;3.15;87.34;101141.62;2067040;83;21085;-72
2021/12/14 14:42:52;;;;;;;67.32;29.60;;;;;;;3.11;87.20;101134.42;2084656;83;21119;-73
2021/12/14 14:45:54;;;;;;;81.57;37.23;;;;;;;2.99;86.93;101131.72;2081257;83;21018;-71
2021/12/14 14:48:56;;;;;;;74.00;35.45;;;;;;;2.88;86.98;101136.30;2088314;82;21100;-70
2021/12/14 14:52:18;;;;;;;63.42;33.70;;;;;;;2.88;87.24;101133.67;2088134;82;20994;-69
2021/12/14 14:55:34;;;;;;;61.42;31.27;;;;;;;2.95;87.51;101128.41;2088071;82;21121;-70
2021/12/14 14:58:37;;;;;;;57.38;28.32;;;;;;;3.02;87.44;101115.80;2093268;82;20985;-70
2021/12/14 15:01:40;;;;;;;58.78;31.62;;;;;;;3.03;87.28;101127.48;2076423;83;21080;-70
2021/12/14 15:05:05;;;;;;;52.10;29.55;;;;;;;3.05;87.24;101126.93;2086873;83;21013;-72